Hauptseite
METAR-TAF:

METAR-TAF

Flughäfen :

Liverpool John Lennon Airport

Liverpool, England

Breite: 53-20N, Länge: 002-51W, Höhe: 26 m

Beobachtung

Neuester Wetterbericht von vor 30 Minuten, um 06:50 UTC
Wind 12 kt aus Ost/Nordost
Temperatur 15°C
Luftfeuchtigkeit 63%
Luftdruck 1024 hPa
Sichtweite 10 km oder mehr
keine Wolken unter 1500 m und keine Kumulonimbus oder Gewitterwolken

METAR: EGGP 310650Z 07012KT CAVOK 15/08 Q1024

Zeit: 08:20 (07:20 UTC)

Prognose

Neuester Wetterbericht von vor 2 Stunden und 24 Minuten, um 04:56 UTC
Gültige Prognose vom 31 um 06 UTC bis 01 um 06 UTC
Wind 9 kt aus Ost
Sichtweite 10 km oder mehr
keine Wolken unter 1500 m und keine Kumulonimbus oder Gewitterwolken

TAF: EGGP 310456Z 3106/0106 09009KT CAVOK

Wetterbeobachtungen und Prognosen von mehr als 4000 Flughäfen (METAR und TAF Bericht).

Die verfügbaren Stationen werden durch gelbe und rote Markierungen auf der Karte dargestellt.

Führen Sie die Maus auf sie, um den Namen der Station zu sehen.

Darauf klicken, um die Beobachtung von Wetterbeobachtungen und Prognosen zu sehen.

Um die Karte zu ändern : klicken Sie auf den grünen Tasten mit einem schwarzen Kreuz Zum Vergrößern, auf den grünen Button mit einem Gedankenstrich zu verkleinern, oder auf die grünen Pfeile für benachbarte Karten.


METAR-TAF: